Terminal Aerodrome Forecast
Issued by NWS

Home | Current Version | Previous Version | Text Only | Print | Product List | Glossary On
Versions: 1 2 3 4 5 6 7 8 9 10 11 12 13 14 15 16 17 18 19 20 21 22 23 24 25 26
428
FTUS42 KCAE 010523
TAFDNL
TAF
KDNL 010523Z 0106/0206 VRB03KT P6SM SCT250
     FM010800 VRB02KT P6SM SCT012
     FM011500 34005KT P6SM FEW040 SCT250
     FM020000 VRB03KT P6SM SCT250=

USA.gov is the U.S. government's official web portal to all federal, state and local government web resources and services.